Time;durP1;ratioP1;P1;durP2;ratioP2;P2;SDS_P1;SDS_P2;PMS_P1;PMS_P2;Temp;Humidity;BMP_temperature;BMP_pressure;BME280_temperature;BME280_humidity;BME280_pressure;Samples;Min_cycle;Max_cycle;Signal;HPM_P1;HPM_P2
2022/12/03 00:00:30;;;;;;;43.95;17.92;;;3.90;99.90;;;;;;5121081;27;20061;-84
2022/12/03 00:02:55;;;;;;;39.53;18.45;;;4.20;99.90;;;;;;5137420;27;20092;-84
2022/12/03 00:05:21;;;;;;;41.58;16.65;;;4.90;99.90;;;;;;5087220;27;20054;-84
2022/12/03 00:07:47;;;;;;;38.50;15.02;;;5.10;99.90;;;;;;5103906;27;20047;-84
2022/12/03 00:10:12;;;;;;;17.17;9.13;;;3.90;99.90;;;;;;5120462;27;20055;-84
2022/12/03 00:12:38;;;;;;;33.05;14.52;;;4.00;99.90;;;;;;5120368;27;20042;-84
2022/12/03 00:15:04;;;;;;;29.20;12.88;;;4.00;99.90;;;;;;5104570;27;20043;-84
2022/12/03 00:17:30;;;;;;;31.63;15.98;;;4.20;99.90;;;;;;5121164;27;20483;-84
2022/12/03 00:19:56;;;;;;;29.92;13.48;;;4.30;99.90;;;;;;5137293;27;20128;-84
2022/12/03 00:22:21;;;;;;;31.85;14.55;;;5.50;99.90;;;;;;5119554;27;20046;-85
2022/12/03 00:24:47;;;;;;;28.23;13.40;;;4.20;99.90;;;;;;5120407;27;20047;-84
2022/12/03 00:27:13;;;;;;;29.90;13.45;;;6.00;99.90;;;;;;5104234;27;20042;-84
2022/12/03 00:29:38;;;;;;;28.23;12.98;;;5.00;99.90;;;;;;5121430;27;20049;-84
2022/12/03 00:32:04;;;;;;;28.38;12.73;;;5.20;99.90;;;;;;5103307;27;20038;-85
2022/12/03 00:34:30;;;;;;;26.27;13.23;;;4.20;99.90;;;;;;5120699;27;20091;-84
2022/12/03 00:36:55;;;;;;;31.27;14.48;;;4.20;99.90;;;;;;5120328;27;20095;-85
2022/12/03 00:39:21;;;;;;;21.73;10.35;;;4.30;99.90;;;;;;5137806;27;20053;-85
2022/12/03 00:41:47;;;;;;;20.15;9.95;;;4.40;99.90;;;;;;5137442;27;20145;-84
2022/12/03 00:44:12;;;;;;;30.67;14.85;;;4.40;99.90;;;;;;5137792;27;20384;-84
2022/12/03 00:46:38;;;;;;;28.05;14.35;;;4.50;99.90;;;;;;5120588;27;20363;-84
2022/12/03 00:49:04;;;;;;;17.20;9.13;;;5.00;99.90;;;;;;5119991;27;20494;-84
2022/12/03 00:51:29;;;;;;;25.75;12.48;;;4.30;99.90;;;;;;5137334;27;20137;-84
2022/12/03 00:53:55;;;;;;;27.92;13.68;;;4.70;99.90;;;;;;5119522;27;20054;-83
2022/12/03 00:56:20;;;;;;;26.58;13.25;;;4.20;99.90;;;;;;5103603;27;20082;-84
2022/12/03 00:58:46;;;;;;;26.23;12.50;;;5.50;99.90;;;;;;5102470;27;20047;-84
2022/12/03 01:01:12;;;;;;;17.65;8.68;;;5.20;99.90;;;;;;5120359;27;20049;-84
2022/12/03 01:03:37;;;;;;;26.15;12.85;;;4.30;99.90;;;;;;5138097;27;20043;-84
2022/12/03 01:06:03;;;;;;;26.60;13.60;;;4.70;99.90;;;;;;5102688;27;20111;-85
2022/12/03 01:08:29;;;;;;;21.70;11.57;;;4.10;99.90;;;;;;5120140;27;20180;-84
2022/12/03 01:10:54;;;;;;;19.58;10.70;;;5.20;99.90;;;;;;5137252;27;20050;-85
2022/12/03 01:13:20;;;;;;;27.63;12.52;;;5.50;99.90;;;;;;5120310;27;20046;-84
2022/12/03 01:15:46;;;;;;;30.73;16.30;;;5.10;99.90;;;;;;5086237;27;20058;-84
2022/12/03 01:18:11;;;;;;;30.05;15.63;;;3.90;99.90;;;;;;5103076;27;20054;-83
2022/12/03 01:20:37;;;;;;;28.95;14.38;;;4.60;99.90;;;;;;5137057;27;20073;-83
2022/12/03 01:23:03;;;;;;;17.30;10.18;;;5.30;99.90;;;;;;5119092;27;20099;-83
2022/12/03 01:25:29;;;;;;;24.38;12.18;;;4.20;99.90;;;;;;5102616;27;20047;-83
2022/12/03 01:27:55;;;;;;;27.27;14.60;;;4.30;99.90;;;;;;5119410;27;20443;-83
2022/12/03 01:30:20;;;;;;;21.70;12.30;;;4.20;99.90;;;;;;5119888;27;20386;-83
2022/12/03 01:32:46;;;;;;;22.15;11.77;;;4.10;99.90;;;;;;5136448;27;20078;-83
2022/12/03 01:35:12;;;;;;;15.48;8.70;;;4.10;99.90;;;;;;5118846;27;20046;-83
2022/12/03 01:37:37;;;;;;;22.17;12.70;;;4.20;99.90;;;;;;5119873;27;20081;-84
2022/12/03 01:40:04;;;;;;;21.85;12.07;;;4.90;99.90;;;;;;5135943;27;20047;-83
2022/12/03 01:42:32;;;;;;;13.48;7.63;;;4.10;99.90;;;;;;5101857;27;20045;-83
2022/12/03 01:44:58;;;;;;;22.65;12.15;;;4.10;99.90;;;;;;5101907;27;20054;-83
2022/12/03 01:47:28;;;;;;;25.40;13.38;;;5.50;99.90;;;;;;5101669;27;20043;-83
2022/12/03 01:49:57;;;;;;;23.75;12.60;;;4.20;99.90;;;;;;5102043;27;20051;-84
2022/12/03 01:52:25;;;;;;;22.58;11.18;;;4.20;99.90;;;;;;5115239;27;20070;-82
2022/12/03 01:54:53;;;;;;;26.67;14.40;;;4.80;99.90;;;;;;5115348;27;20058;-83
2022/12/03 01:57:20;;;;;;;31.95;15.77;;;4.20;99.90;;;;;;5115393;27;20141;-83
2022/12/03 01:59:45;;;;;;;16.15;8.40;;;4.10;99.90;;;;;;5115119;27;20107;-83
2022/12/03 02:02:12;;;;;;;27.98;13.93;;;4.20;99.90;;;;;;5096892;27;20085;-83
2022/12/03 02:04:38;;;;;;;18.75;8.63;;;5.40;99.90;;;;;;5097921;27;20050;-83
2022/12/03 02:07:28;;;;;;;29.13;15.35;;;4.10;99.90;;;;;;5104508;27;20039;-83
2022/12/03 02:09:55;;;;;;;25.45;13.45;;;5.10;99.90;;;;;;5114762;27;20058;-83
2022/12/03 02:12:33;;;;;;;28.75;15.23;;;5.00;99.90;;;;;;5097940;27;20059;-83
2022/12/03 02:14:59;;;;;;;21.95;11.38;;;4.60;99.90;;;;;;5111276;27;20046;-83
2022/12/03 02:17:24;;;;;;;26.58;12.48;;;4.00;99.90;;;;;;5114292;27;20043;-83
2022/12/03 02:19:50;;;;;;;23.17;10.98;;;4.20;99.90;;;;;;5114938;27;20078;-83
2022/12/03 02:22:26;;;;;;;26.27;14.35;;;5.00;99.90;;;;;;5113849;27;20479;-82
2022/12/03 02:25:09;;;;;;;27.17;14.05;;;4.70;99.90;;;;;;5114315;27;20086;-82
2022/12/03 02:27:34;;;;;;;24.80;12.02;;;4.30;99.90;;;;;;5114760;27;20039;-82
2022/12/03 02:30:00;;;;;;;28.92;15.00;;;4.70;99.90;;;;;;5097015;27;20529;-84
2022/12/03 02:32:25;;;;;;;22.88;10.30;;;5.10;99.90;;;;;;5132536;27;20083;-84
2022/12/03 02:34:51;;;;;;;29.05;15.48;;;4.40;99.90;;;;;;5115282;27;20047;-84
2022/12/03 02:37:33;;;;;;;20.73;10.68;;;4.20;99.90;;;;;;5131724;27;20069;-84
2022/12/03 02:40:01;;;;;;;15.13;8.50;;;4.20;99.90;;;;;;5081855;27;20059;-84
2022/12/03 02:42:36;;;;;;;30.30;15.02;;;4.10;99.90;;;;;;5098271;27;20130;-84
2022/12/03 02:45:27;;;;;;;21.33;11.20;;;4.00;99.90;;;;;;5099562;28;20083;-84
2022/12/03 02:48:01;;;;;;;19.17;11.20;;;4.20;99.90;;;;;;5099351;28;20054;-84
2022/12/03 02:50:29;;;;;;;18.13;10.43;;;4.20;99.90;;;;;;5115265;28;20082;-85
2022/12/03 02:52:55;;;;;;;29.55;15.02;;;5.00;99.90;;;;;;5097591;27;20054;-84
2022/12/03 02:55:21;;;;;;;26.35;13.65;;;4.20;99.90;;;;;;5097192;27;20051;-84
2022/12/03 02:57:47;;;;;;;23.35;10.50;;;4.10;99.90;;;;;;5080700;27;20054;-84
2022/12/03 03:00:13;;;;;;;26.23;13.18;;;5.90;99.90;;;;;;5097331;28;20051;-84
2022/12/03 03:02:39;;;;;;;20.65;10.63;;;4.10;99.90;;;;;;5114204;28;20514;-84
2022/12/03 03:05:05;;;;;;;14.63;7.53;;;4.30;99.90;;;;;;5115096;28;20043;-84
2022/12/03 03:07:30;;;;;;;30.13;15.60;;;4.10;99.90;;;;;;5098495;28;20054;-83
2022/12/03 03:09:57;;;;;;;22.65;11.80;;;3.90;99.90;;;;;;5114619;28;20467;-84
2022/12/03 03:12:22;;;;;;;26.55;14.35;;;3.90;99.90;;;;;;5097141;28;20059;-84
2022/12/03 03:14:48;;;;;;;27.83;14.52;;;3.90;99.90;;;;;;5097793;28;20054;-84
2022/12/03 03:17:14;;;;;;;30.45;16.77;;;3.90;99.90;;;;;;5097349;28;20216;-84
2022/12/03 03:19:39;;;;;;;29.13;15.15;;;3.80;99.90;;;;;;5114440;28;20100;-84
2022/12/03 03:22:05;;;;;;;30.00;16.42;;;4.10;99.90;;;;;;5113992;28;20394;-84
2022/12/03 03:24:31;;;;;;;30.27;13.40;;;3.80;99.90;;;;;;5131507;28;20611;-84
2022/12/03 03:26:56;;;;;;;29.83;15.85;;;4.30;99.90;;;;;;5097505;28;20039;-83
2022/12/03 03:29:22;;;;;;;23.80;12.85;;;4.10;99.90;;;;;;5096845;28;20065;-84
2022/12/03 03:31:47;;;;;;;35.85;16.95;;;4.90;99.90;;;;;;5114133;28;20061;-83
2022/12/03 03:34:13;;;;;;;29.13;15.35;;;4.90;99.90;;;;;;5096246;28;20113;-84
2022/12/03 03:36:39;;;;;;;29.67;15.73;;;4.40;99.90;;;;;;5113851;28;20054;-84
2022/12/03 03:39:05;;;;;;;29.80;16.67;;;3.90;99.90;;;;;;5097150;28;20130;-84
2022/12/03 03:41:31;;;;;;;27.38;15.90;;;4.90;99.90;;;;;;5096911;28;20072;-84
2022/12/03 03:43:56;;;;;;;29.05;15.27;;;4.00;99.90;;;;;;5113974;28;20047;-84
2022/12/03 03:46:22;;;;;;;27.13;14.50;;;5.70;99.90;;;;;;5097940;28;20051;-84
2022/12/03 03:48:47;;;;;;;33.28;16.27;;;5.20;99.90;;;;;;5097322;28;20043;-84
2022/12/03 03:51:13;;;;;;;32.38;14.00;;;4.70;99.90;;;;;;5113852;28;20135;-84
2022/12/03 03:53:41;;;;;;;19.25;11.38;;;5.50;99.90;;;;;;5114385;28;20086;-84
2022/12/03 03:56:07;;;;;;;14.80;8.90;;;4.20;99.90;;;;;;5093797;28;20096;-84
2022/12/03 03:58:33;;;;;;;28.83;14.70;;;5.60;99.90;;;;;;5097823;28;20442;-84
2022/12/03 04:00:59;;;;;;;28.88;14.82;;;4.00;99.90;;;;;;5097540;28;20081;-84
2022/12/03 04:03:26;;;;;;;27.05;13.18;;;5.20;99.90;;;;;;5080906;28;20399;-84
2022/12/03 04:05:52;;;;;;;21.50;10.40;;;4.10;99.90;;;;;;5115036;28;20048;-84
2022/12/03 04:08:17;;;;;;;27.85;13.77;;;5.50;99.90;;;;;;5097312;28;20552;-84
2022/12/03 04:13:27;;;;;;;30.65;15.88;;;3.90;99.90;;;;;;5114519;28;20039;-84
2022/12/03 04:15:53;;;;;;;19.90;10.20;;;4.00;99.90;;;;;;5113731;28;20050;-84
2022/12/03 04:23:47;;;;;;;25.45;14.65;;;3.90;99.90;;;;;;5099729;28;20057;-83
2022/12/03 04:28:56;;;;;;;32.17;15.27;;;5.00;99.90;;;;;;5099357;28;20052;-83
2022/12/03 04:36:52;;;;;;;28.45;14.77;;;3.80;99.90;;;;;;5113589;28;20058;-84
2022/12/03 04:39:18;;;;;;;18.90;10.38;;;4.40;99.90;;;;;;5113647;28;20383;-83
2022/12/03 04:41:43;;;;;;;29.60;15.00;;;3.80;99.90;;;;;;5097193;28;20042;-83
2022/12/03 04:46:53;;;;;;;27.83;14.18;;;4.00;99.90;;;;;;5099288;28;20510;-83
2022/12/03 04:49:19;;;;;;;24.38;12.38;;;4.60;99.90;;;;;;5113724;28;20044;-84
2022/12/03 04:51:47;;;;;;;18.25;8.95;;;3.90;99.90;;;;;;5096695;28;20047;-84
2022/12/03 04:54:13;;;;;;;24.30;12.00;;;4.00;99.90;;;;;;5080476;28;20054;-83
2022/12/03 04:56:38;;;;;;;27.38;13.63;;;3.90;99.90;;;;;;5095679;28;20391;-83
2022/12/03 04:59:04;;;;;;;28.08;15.77;;;4.60;99.90;;;;;;5097098;28;20176;-83
2022/12/03 05:01:29;;;;;;;33.55;16.17;;;3.80;99.90;;;;;;5096114;28;20112;-83
2022/12/03 05:03:55;;;;;;;25.55;13.93;;;4.30;99.90;;;;;;5096362;28;20054;-83
2022/12/03 05:06:21;;;;;;;22.75;11.15;;;3.80;99.90;;;;;;5095870;28;20183;-83
2022/12/03 05:08:46;;;;;;;32.60;16.75;;;3.70;99.90;;;;;;5095159;28;20089;-82
2022/12/03 05:11:12;;;;;;;29.65;14.77;;;5.20;99.90;;;;;;5096082;28;20039;-83
2022/12/03 05:13:38;;;;;;;31.92;16.25;;;5.00;99.90;;;;;;5096111;28;20130;-83
2022/12/03 05:16:03;;;;;;;30.35;14.77;;;5.10;99.90;;;;;;5096230;28;20051;-83
2022/12/03 05:18:29;;;;;;;31.35;15.73;;;3.70;99.90;;;;;;5112983;28;20135;-83
2022/12/03 05:20:55;;;;;;;32.65;16.52;;;3.70;99.90;;;;;;5096112;28;20055;-83
2022/12/03 05:23:20;;;;;;;26.77;13.98;;;4.60;99.90;;;;;;5079407;28;20043;-84
2022/12/03 05:25:46;;;;;;;33.25;16.27;;;5.50;99.90;;;;;;5095834;28;20044;-83
2022/12/03 05:28:12;;;;;;;26.95;13.52;;;3.70;99.90;;;;;;5112987;28;20142;-83
2022/12/03 05:30:37;;;;;;;29.17;14.18;;;4.70;99.90;;;;;;5112778;27;20055;-83
2022/12/03 05:33:03;;;;;;;28.02;13.55;;;3.80;99.90;;;;;;5095916;28;20051;-84
2022/12/03 05:35:28;;;;;;;31.77;15.30;;;3.70;99.90;;;;;;5095573;28;20062;-83
2022/12/03 05:37:54;;;;;;;21.45;11.68;;;4.60;99.90;;;;;;5112587;28;20475;-83
2022/12/03 05:40:20;;;;;;;26.38;13.85;;;4.70;99.90;;;;;;5112624;28;20496;-83
2022/12/03 05:43:00;;;;;;;20.27;9.63;;;3.20;99.90;;;;;;5095459;28;20073;-84
2022/12/03 05:45:30;;;;;;;31.85;16.63;;;4.40;99.90;;;;;;5112443;28;20044;-83
2022/12/03 05:47:56;;;;;;;38.17;17.73;;;3.60;99.90;;;;;;5112786;28;20130;-83
2022/12/03 05:50:23;;;;;;;36.22;16.50;;;3.50;99.90;;;;;;5078237;28;20096;-84
2022/12/03 05:52:48;;;;;;;26.63;12.90;;;4.20;99.90;;;;;;5112103;28;20066;-83
2022/12/03 05:55:14;;;;;;;23.02;12.98;;;4.30;99.90;;;;;;5112789;28;20051;-84
2022/12/03 05:57:40;;;;;;;33.85;17.23;;;3.80;99.90;;;;;;5078431;28;20083;-83
2022/12/03 06:00:08;;;;;;;28.00;14.10;;;4.20;99.90;;;;;;5061683;28;20040;-84
2022/12/03 06:02:33;;;;;;;27.77;15.18;;;3.60;99.90;;;;;;5077413;28;20050;-83
2022/12/03 06:04:59;;;;;;;29.20;15.93;;;4.00;99.90;;;;;;5113212;28;20047;-84
2022/12/03 06:07:25;;;;;;;31.23;16.35;;;3.70;99.90;;;;;;5111764;28;20051;-84
2022/12/03 06:09:50;;;;;;;23.73;11.05;;;3.50;99.90;;;;;;5078356;28;20055;-83
2022/12/03 06:12:16;;;;;;;25.75;13.45;;;3.50;99.90;;;;;;5095236;28;20090;-84
2022/12/03 06:14:42;;;;;;;18.60;9.90;;;5.40;99.90;;;;;;5111996;28;20172;-84
2022/12/03 06:17:07;;;;;;;30.08;16.67;;;4.00;99.90;;;;;;5095083;28;20043;-83
2022/12/03 06:19:33;;;;;;;21.17;10.80;;;3.60;99.90;;;;;;5094533;28;20082;-83
2022/12/03 06:21:59;;;;;;;26.33;12.75;;;4.50;99.90;;;;;;5094789;28;20092;-84
2022/12/03 06:24:24;;;;;;;29.05;16.25;;;4.50;99.90;;;;;;5094867;28;20082;-83
2022/12/03 06:26:50;;;;;;;19.63;9.25;;;3.50;99.90;;;;;;5093904;28;20060;-84
2022/12/03 06:29:16;;;;;;;23.92;12.05;;;3.80;99.90;;;;;;5111902;28;20049;-84
2022/12/03 06:31:41;;;;;;;30.92;15.98;;;4.90;99.90;;;;;;5094344;28;20107;-84
2022/12/03 06:34:07;;;;;;;27.27;11.60;;;4.60;99.90;;;;;;5077882;28;20085;-83
2022/12/03 06:36:32;;;;;;;34.17;16.55;;;3.60;99.90;;;;;;5077515;28;20051;-83
2022/12/03 06:38:58;;;;;;;29.50;14.02;;;3.40;99.90;;;;;;5094066;28;20051;-83
2022/12/03 06:41:24;;;;;;;20.45;11.20;;;3.40;99.90;;;;;;5094117;28;20118;-83
2022/12/03 06:43:49;;;;;;;31.83;16.20;;;3.50;99.90;;;;;;5076569;28;20047;-83
2022/12/03 06:46:15;;;;;;;31.10;15.40;;;3.50;99.90;;;;;;5094034;28;20126;-83
2022/12/03 06:48:40;;;;;;;34.35;17.25;;;3.30;99.90;;;;;;5076658;28;20123;-83
2022/12/03 06:51:06;;;;;;;28.92;13.98;;;3.20;99.90;;;;;;5112298;27;20059;-83
2022/12/03 06:53:32;;;;;;;32.13;15.68;;;3.30;99.90;;;;;;5097524;27;20521;-82
2022/12/03 06:55:57;;;;;;;19.13;10.20;;;4.70;99.90;;;;;;5117372;27;20101;-84
2022/12/03 06:58:23;;;;;;;27.80;15.27;;;3.40;99.90;;;;;;5135692;27;20046;-83
2022/12/03 07:00:49;;;;;;;33.90;16.65;;;3.50;99.90;;;;;;5134805;27;20045;-83
2022/12/03 07:03:14;;;;;;;24.33;12.70;;;3.10;99.90;;;;;;5135259;27;20430;-83
2022/12/03 07:05:40;;;;;;;33.72;17.17;;;3.10;99.90;;;;;;5117926;27;20171;-83
2022/12/03 07:08:06;;;;;;;29.33;15.07;;;3.10;99.90;;;;;;5134811;27;20074;-83
2022/12/03 07:10:31;;;;;;;32.05;16.52;;;3.00;99.90;;;;;;5101449;27;20133;-83
2022/12/03 07:12:57;;;;;;;28.98;14.90;;;4.10;99.90;;;;;;5135149;27;20137;-83
2022/12/03 07:15:23;;;;;;;24.48;12.40;;;2.80;99.90;;;;;;5117614;27;20043;-83
2022/12/03 07:17:48;;;;;;;29.45;16.35;;;4.10;99.90;;;;;;5135211;27;20074;-83
2022/12/03 07:20:15;;;;;;;32.35;15.48;;;3.00;99.90;;;;;;5117688;27;20542;-83
2022/12/03 07:22:40;;;;;;;28.42;12.85;;;3.90;99.90;;;;;;5134413;27;20406;-83
2022/12/03 07:25:07;;;;;;;31.15;15.90;;;2.90;99.90;;;;;;5134792;27;20054;-83
2022/12/03 07:27:32;;;;;;;32.10;16.02;;;2.90;99.90;;;;;;5134906;27;20125;-83
2022/12/03 07:29:58;;;;;;;32.55;15.15;;;4.00;99.90;;;;;;5117186;27;20554;-83
2022/12/03 07:32:23;;;;;;;25.20;12.98;;;3.00;99.90;;;;;;5120316;27;20137;-83
2022/12/03 07:34:49;;;;;;;21.05;10.60;;;2.70;99.90;;;;;;5121371;27;20046;-83
2022/12/03 07:37:15;;;;;;;33.58;16.75;;;2.70;99.90;;;;;;5104297;27;20122;-83
2022/12/03 07:39:40;;;;;;;30.13;15.90;;;4.20;99.90;;;;;;5138495;27;20042;-83
2022/12/03 07:42:08;;;;;;;30.63;14.15;;;4.00;99.90;;;;;;5122155;27;20041;-84
2022/12/03 07:44:34;;;;;;;31.60;14.93;;;2.60;99.90;;;;;;5122281;27;20199;-84
2022/12/03 07:46:59;;;;;;;23.15;11.80;;;2.60;99.90;;;;;;5121071;27;20472;-84
2022/12/03 07:49:25;;;;;;;27.55;12.70;;;4.10;99.90;;;;;;5121918;27;20042;-84
2022/12/03 07:51:55;;;;;;;32.55;16.42;;;2.60;99.90;;;;;;5100220;27;20112;-84
2022/12/03 07:54:24;;;;;;;32.03;14.50;;;2.50;99.90;;;;;;5121684;27;20109;-84
2022/12/03 07:56:49;;;;;;;34.97;16.02;;;2.60;99.90;;;;;;5086809;27;20133;-84
2022/12/03 07:59:15;;;;;;;32.90;15.35;;;3.50;99.90;;;;;;5136517;27;20125;-84
2022/12/03 08:01:41;;;;;;;34.08;15.35;;;2.50;99.90;;;;;;5103333;27;20046;-84
2022/12/03 08:04:07;;;;;;;34.40;16.58;;;3.20;99.90;;;;;;5102775;27;20049;-84
2022/12/03 08:06:33;;;;;;;27.90;12.75;;;4.10;99.90;;;;;;5119821;27;20039;-84
2022/12/03 08:08:58;;;;;;;35.40;16.15;;;4.00;99.90;;;;;;5137280;27;20382;-84
2022/12/03 08:11:26;;;;;;;37.15;16.23;;;3.50;99.90;;;;;;5120291;27;20153;-84
2022/12/03 08:13:52;;;;;;;23.90;11.43;;;2.50;99.90;;;;;;5103615;27;20058;-84
2022/12/03 08:16:19;;;;;;;32.00;15.20;;;4.30;99.90;;;;;;5119707;27;20070;-83
2022/12/03 08:18:45;;;;;;;38.90;15.73;;;3.30;99.90;;;;;;5117944;27;20407;-82
2022/12/03 08:21:12;;;;;;;37.17;16.48;;;2.50;99.90;;;;;;5136120;27;20195;-81
2022/12/03 08:23:37;;;;;;;36.47;16.23;;;3.60;99.90;;;;;;5102492;27;20035;-82
2022/12/03 08:26:18;;;;;;;25.17;12.30;;;2.80;99.90;;;;;;5118699;27;20490;-81
2022/12/03 08:28:44;;;;;;;33.53;15.85;;;2.60;99.90;;;;;;5093883;27;20157;-84
2022/12/03 08:31:19;;;;;;;34.72;14.20;;;2.40;99.90;;;;;;5135722;27;20118;-82
2022/12/03 08:33:46;;;;;;;37.55;16.25;;;2.40;99.90;;;;;;5135139;27;20054;-82
2022/12/03 08:36:15;;;;;;;34.25;16.05;;;3.20;99.90;;;;;;5101206;27;20491;-82
2022/12/03 08:38:44;;;;;;;36.72;17.38;;;3.60;99.90;;;;;;5098004;28;20138;-82
2022/12/03 08:41:13;;;;;;;36.97;17.23;;;3.50;99.90;;;;;;5117460;27;20062;-83
2022/12/03 08:43:41;;;;;;;32.38;14.98;;;2.40;99.90;;;;;;5108358;27;20059;-83
2022/12/03 08:46:11;;;;;;;35.15;15.93;;;2.90;99.90;;;;;;5135958;27;20047;-83
2022/12/03 08:48:37;;;;;;;33.35;16.65;;;3.10;99.90;;;;;;5085218;27;20120;-84
2022/12/03 08:51:20;;;;;;;26.08;14.10;;;2.40;99.90;;;;;;5134230;27;20039;-82
2022/12/03 08:54:03;;;;;;;38.47;17.48;;;2.40;99.90;;;;;;5101008;27;20046;-83
2022/12/03 08:56:29;;;;;;;35.72;16.55;;;2.80;99.90;;;;;;5102092;27;20522;-82
2022/12/03 08:59:12;;;;;;;33.03;16.25;;;2.60;99.90;;;;;;5091678;27;20038;-82
2022/12/03 09:01:40;;;;;;;38.75;15.23;;;2.50;99.90;;;;;;5103749;27;20172;-83
2022/12/03 09:04:28;;;;;;;37.03;15.55;;;2.50;99.90;;;;;;5101701;27;20354;-83
2022/12/03 09:06:54;;;;;;;31.98;17.58;;;2.60;99.90;;;;;;5117154;27;20046;-82
2022/12/03 09:09:20;;;;;;;40.25;18.30;;;3.00;99.90;;;;;;5101463;27;20047;-82
2022/12/03 09:11:46;;;;;;;35.53;17.20;;;3.00;99.90;;;;;;5088937;27;20131;-82
2022/12/03 09:14:11;;;;;;;39.85;18.48;;;3.30;99.90;;;;;;5117678;27;20050;-82
2022/12/03 09:16:37;;;;;;;38.30;18.80;;;2.50;99.90;;;;;;5118812;27;20330;-82
2022/12/03 09:19:03;;;;;;;30.63;14.13;;;2.40;99.90;;;;;;5135653;27;20096;-82
2022/12/03 09:21:28;;;;;;;38.53;17.55;;;3.00;99.90;;;;;;5135394;27;20046;-83
2022/12/03 09:23:54;;;;;;;37.90;18.92;;;2.60;99.90;;;;;;5100435;27;20035;-83
2022/12/03 09:26:20;;;;;;;42.47;19.98;;;3.50;99.90;;;;;;5153457;27;20045;-83
2022/12/03 09:28:47;;;;;;;28.20;11.63;;;3.60;99.90;;;;;;5135403;27;20046;-82
2022/12/03 09:31:13;;;;;;;25.50;11.27;;;3.40;99.90;;;;;;5117968;27;20517;-82
2022/12/03 09:33:39;;;;;;;41.22;18.92;;;2.60;99.90;;;;;;5116452;27;20047;-84
2022/12/03 09:36:05;;;;;;;46.65;20.85;;;2.50;99.90;;;;;;5133868;27;20041;-82
2022/12/03 09:38:31;;;;;;;43.03;20.15;;;2.60;99.90;;;;;;5117647;27;20072;-82
2022/12/03 09:40:56;;;;;;;44.55;20.48;;;4.10;99.90;;;;;;5134003;27;20047;-82
2022/12/03 09:43:22;;;;;;;39.67;17.85;;;3.80;99.90;;;;;;5117460;27;20046;-82
2022/12/03 09:45:48;;;;;;;34.97;13.68;;;2.40;99.90;;;;;;5115029;27;20043;-82
2022/12/03 09:48:15;;;;;;;42.45;20.45;;;4.00;99.90;;;;;;5118295;27;20097;-83
2022/12/03 09:50:40;;;;;;;44.95;19.63;;;2.50;99.90;;;;;;5101476;27;20055;-83
2022/12/03 09:53:07;;;;;;;40.95;18.63;;;4.00;99.90;;;;;;5100533;27;20465;-83
2022/12/03 09:55:33;;;;;;;38.55;20.27;;;2.30;99.90;;;;;;5101369;27;20142;-83
2022/12/03 09:57:59;;;;;;;38.42;17.10;;;4.00;99.90;;;;;;5101038;27;20565;-83
2022/12/03 10:00:27;;;;;;;38.17;17.27;;;3.10;99.90;;;;;;5118043;27;20050;-82
2022/12/03 10:02:55;;;;;;;50.72;20.08;;;2.40;99.90;;;;;;5116985;27;20550;-83
2022/12/03 10:05:21;;;;;;;35.70;17.50;;;2.50;99.90;;;;;;5100729;27;20403;-83
2022/12/03 10:07:47;;;;;;;37.92;19.30;;;2.50;99.90;;;;;;5116126;27;20087;-82
2022/12/03 10:10:18;;;;;;;32.50;15.95;;;2.40;99.90;;;;;;5100116;27;20049;-83
2022/12/03 10:12:44;;;;;;;39.40;19.15;;;2.40;99.90;;;;;;5084102;27;20114;-83
2022/12/03 10:15:14;;;;;;;35.10;15.35;;;4.10;99.90;;;;;;5100813;27;20549;-83
2022/12/03 10:17:40;;;;;;;31.30;16.27;;;4.10;99.90;;;;;;5084195;27;20058;-84
2022/12/03 10:20:06;;;;;;;39.40;18.67;;;2.90;99.90;;;;;;5100830;27;20042;-83
2022/12/03 10:22:36;;;;;;;37.45;17.25;;;2.80;99.90;;;;;;5117505;27;20172;-83
2022/12/03 10:25:04;;;;;;;41.00;19.67;;;2.60;99.90;;;;;;5101792;27;20050;-83
2022/12/03 10:27:30;;;;;;;42.10;20.00;;;2.50;99.90;;;;;;5135156;27;20133;-83
2022/12/03 10:29:57;;;;;;;33.35;16.27;;;2.40;99.90;;;;;;5117884;27;20195;-84
2022/12/03 10:32:25;;;;;;;35.13;18.10;;;2.60;99.90;;;;;;5100684;27;20054;-83
2022/12/03 10:34:50;;;;;;;50.17;20.77;;;2.50;99.90;;;;;;5100593;27;20054;-83
2022/12/03 10:37:20;;;;;;;28.45;14.32;;;2.80;99.90;;;;;;5100318;27;20038;-83
2022/12/03 10:40:08;;;;;;;43.03;19.10;;;2.70;99.90;;;;;;5117499;27;20482;-83
2022/12/03 10:42:39;;;;;;;35.25;17.17;;;2.40;99.90;;;;;;5101741;27;20042;-83
2022/12/03 10:45:07;;;;;;;35.05;15.63;;;2.70;99.90;;;;;;5100327;27;20050;-83
2022/12/03 10:47:32;;;;;;;41.13;18.90;;;3.30;99.90;;;;;;5100894;27;20527;-83
2022/12/03 10:50:03;;;;;;;37.10;17.00;;;2.70;99.90;;;;;;5100663;27;20035;-84
2022/12/03 10:52:28;;;;;;;32.53;15.93;;;2.90;99.90;;;;;;5117041;27;20062;-84
2022/12/03 10:54:54;;;;;;;36.08;18.10;;;4.30;99.90;;;;;;5096794;27;20059;-85
2022/12/03 10:57:20;;;;;;;36.75;16.05;;;2.90;99.90;;;;;;5096435;27;20087;-84
2022/12/03 10:59:45;;;;;;;35.30;16.45;;;2.40;99.90;;;;;;5098998;27;20047;-83
2022/12/03 11:02:22;;;;;;;42.40;19.20;;;2.60;99.90;;;;;;5116505;27;20039;-83
2022/12/03 11:04:47;;;;;;;45.75;21.35;;;3.80;99.90;;;;;;5100529;27;20082;-84
2022/12/03 11:07:14;;;;;;;45.13;21.40;;;3.20;99.90;;;;;;5115902;27;20115;-83
2022/12/03 11:09:48;;;;;;;42.90;20.40;;;4.00;99.90;;;;;;5100302;27;20138;-84
2022/12/03 11:12:24;;;;;;;44.88;20.55;;;2.50;99.90;;;;;;5117242;27;20073;-82
2022/12/03 11:14:50;;;;;;;43.05;21.98;;;2.60;99.90;;;;;;5101193;27;20050;-84
2022/12/03 11:17:42;;;;;;;41.05;19.10;;;2.70;99.90;;;;;;5133739;27;20053;-84
2022/12/03 11:20:12;;;;;;;25.27;12.32;;;2.50;99.90;;;;;;5117201;27;20069;-85
2022/12/03 11:22:48;;;;;;;42.00;21.23;;;3.70;99.90;;;;;;5116229;27;20043;-83
2022/12/03 11:25:26;;;;;;;48.13;22.38;;;2.40;99.90;;;;;;5117796;27;20043;-83
2022/12/03 11:28:10;;;;;;;32.55;13.77;;;2.30;99.90;;;;;;5115819;27;20042;-84
2022/12/03 11:30:48;;;;;;;43.42;21.90;;;2.70;99.90;;;;;;5115348;27;20363;-83
2022/12/03 11:33:27;;;;;;;39.97;16.65;;;2.60;99.90;;;;;;5131761;27;20115;-82
2022/12/03 11:36:01;;;;;;;46.33;21.90;;;2.50;99.90;;;;;;5113005;27;20045;-82
2022/12/03 11:38:36;;;;;;;32.17;14.80;;;2.40;99.90;;;;;;5130627;27;20398;-83
2022/12/03 11:41:08;;;;;;;46.28;21.10;;;3.10;99.90;;;;;;5132095;27;20035;-83
2022/12/03 11:43:54;;;;;;;36.25;17.10;;;2.60;99.90;;;;;;5115946;27;20049;-83
2022/12/03 11:46:20;;;;;;;42.30;19.45;;;2.90;99.90;;;;;;5115277;27;20062;-82
2022/12/03 11:48:46;;;;;;;47.90;22.65;;;3.00;99.90;;;;;;5132733;27;20049;-83
2022/12/03 11:51:15;;;;;;;42.25;19.25;;;2.40;99.90;;;;;;5115283;27;20049;-82
2022/12/03 11:53:41;;;;;;;42.28;20.42;;;3.10;99.90;;;;;;5104785;27;20132;-83
2022/12/03 11:56:09;;;;;;;29.45;15.57;;;2.70;99.90;;;;;;5082463;27;20065;-85
2022/12/03 11:58:40;;;;;;;41.50;19.45;;;2.90;99.90;;;;;;5116463;27;20676;-83
2022/12/03 12:01:06;;;;;;;35.80;17.92;;;2.60;99.90;;;;;;5116585;27;20068;-83
2022/12/03 12:03:33;;;;;;;34.70;16.40;;;3.40;99.90;;;;;;5132961;27;20047;-84
2022/12/03 12:06:09;;;;;;;43.03;20.40;;;3.30;99.90;;;;;;5078937;28;20039;-83
2022/12/03 12:08:37;;;;;;;39.10;19.08;;;2.90;99.90;;;;;;5095950;28;20104;-83
2022/12/03 12:11:03;;;;;;;47.15;18.42;;;2.80;99.90;;;;;;5096466;28;20558;-83
2022/12/03 12:13:34;;;;;;;45.13;20.83;;;2.70;99.90;;;;;;5098451;27;20049;-83
2022/12/03 12:16:04;;;;;;;43.92;20.75;;;4.30;99.90;;;;;;5116337;27;20046;-83
2022/12/03 12:18:36;;;;;;;42.30;20.35;;;2.80;99.90;;;;;;5102178;27;20046;-83
2022/12/03 12:21:42;;;;;;;43.13;19.60;;;2.70;99.90;;;;;;5137047;27;20050;-83
2022/12/03 12:24:40;;;;;;;40.05;17.75;;;2.70;99.90;;;;;;5120800;27;20053;-83
2022/12/03 12:27:06;;;;;;;35.75;18.13;;;2.80;99.90;;;;;;5139618;27;20098;-83
2022/12/03 12:29:33;;;;;;;41.88;18.17;;;3.70;99.90;;;;;;5105408;27;20072;-83
2022/12/03 12:32:12;;;;;;;38.75;18.70;;;2.90;99.90;;;;;;5120136;27;20054;-83
2022/12/03 12:34:44;;;;;;;39.40;17.05;;;4.00;99.90;;;;;;5122289;27;20439;-83
2022/12/03 12:37:21;;;;;;;41.13;19.08;;;4.00;99.90;;;;;;5106079;27;20038;-82
2022/12/03 12:39:47;;;;;;;40.92;18.77;;;3.00;99.90;;;;;;5107512;27;20050;-83
2022/12/03 12:42:19;;;;;;;42.67;19.45;;;4.00;99.90;;;;;;5140195;27;20053;-83
2022/12/03 12:44:45;;;;;;;38.67;19.05;;;3.40;99.90;;;;;;5122911;27;20084;-83
2022/12/03 12:47:11;;;;;;;38.72;17.45;;;3.90;99.90;;;;;;5104889;27;20050;-83
2022/12/03 12:49:36;;;;;;;32.33;15.93;;;2.90;99.90;;;;;;5119209;27;20058;-83
2022/12/03 12:52:04;;;;;;;39.63;19.38;;;3.40;99.90;;;;;;5118529;27;20042;-83
2022/12/03 12:54:30;;;;;;;37.78;19.38;;;4.10;99.90;;;;;;5101588;27;20486;-82
2022/12/03 12:56:56;;;;;;;35.83;18.10;;;3.80;99.90;;;;;;5102240;27;20115;-83
2022/12/03 12:59:23;;;;;;;30.65;14.38;;;2.90;99.90;;;;;;5119225;27;20047;-83